Time;durP1;ratioP1;P1;durP2;ratioP2;P2;SDS_P1;SDS_P2;PMS_P1;PMS_P2;Temp;Humidity;BMP_temperature;BMP_pressure;BME280_temperature;BME280_humidity;BME280_pressure;Samples;Min_cycle;Max_cycle;Signal;HPM_P1;HPM_P2
2022/01/19 00:02:30;;;;;;;7.38;2.85;;;;;;;-148.16;100.00;58328.31;5035667;28;20053;-58
2022/01/19 00:05:15;;;;;;;8.55;2.85;;;;;;;-148.16;100.00;58328.31;5031391;28;20433;-58
2022/01/19 00:08:01;;;;;;;8.43;2.33;;;;;;;-148.16;100.00;58328.31;5036157;28;20049;-58
2022/01/19 00:10:49;;;;;;;12.23;3.22;;;;;;;-148.16;100.00;58328.31;5036821;28;20057;-58
2022/01/19 00:13:35;;;;;;;6.07;2.35;;;;;;;-148.16;100.00;58328.31;5030889;28;20041;-58
2022/01/19 00:16:21;;;;;;;6.30;2.38;;;;;;;-148.16;100.00;58328.31;5031060;28;20350;-58
2022/01/19 00:19:07;;;;;;;4.78;2.33;;;;;;;-148.16;100.00;58328.31;5030804;28;20049;-58
2022/01/19 00:21:53;;;;;;;9.23;3.05;;;;;;;-148.16;100.00;58328.31;5030981;28;20053;-58
2022/01/19 00:24:41;;;;;;;4.85;2.55;;;;;;;-148.16;100.00;58328.31;5036830;28;20041;-58
2022/01/19 00:27:26;;;;;;;5.68;2.47;;;;;;;-148.16;100.00;58328.31;5030794;28;20049;-58
2022/01/19 00:30:13;;;;;;;7.53;2.60;;;;;;;-148.16;100.00;58328.31;5031240;28;20422;-59
2022/01/19 00:32:59;;;;;;;8.90;3.20;;;;;;;-148.16;100.00;58328.31;5030249;28;20057;-57
2022/01/19 00:35:45;;;;;;;12.40;3.10;;;;;;;-148.16;100.00;58328.31;5029873;28;20049;-59
2022/01/19 00:38:31;;;;;;;7.70;3.00;;;;;;;-148.16;100.00;58328.31;5030605;28;20049;-60
2022/01/19 00:41:17;;;;;;;7.85;3.13;;;;;;;-148.16;100.00;58328.31;5030996;28;20049;-59
2022/01/19 00:44:03;;;;;;;7.10;2.70;;;;;;;-148.16;100.00;58328.31;5030171;28;20416;-59
2022/01/19 00:46:49;;;;;;;7.78;2.67;;;;;;;-148.16;100.00;58328.31;5029640;28;20049;-59
2022/01/19 00:49:35;;;;;;;7.57;3.00;;;;;;;-148.16;100.00;58328.31;5030537;28;20484;-59
2022/01/19 00:52:20;;;;;;;6.55;2.28;;;;;;;-148.16;100.00;58328.31;5030684;28;20045;-59
2022/01/19 00:55:09;;;;;;;6.18;2.70;;;;;;;-148.16;100.00;58328.31;5029197;28;20049;-60
2022/01/19 00:57:55;;;;;;;6.90;2.78;;;;;;;-148.16;100.00;58328.31;5030487;28;20050;-59
2022/01/19 01:00:42;;;;;;;7.05;2.60;;;;;;;-148.16;100.00;58328.31;5030359;28;20065;-59
2022/01/19 01:03:27;;;;;;;6.07;2.83;;;;;;;-148.16;100.00;58328.31;5030923;28;20050;-59
2022/01/19 01:06:14;;;;;;;9.60;2.92;;;;;;;-148.16;100.00;58328.31;5021630;28;20072;-59
2022/01/19 01:09:00;;;;;;;8.73;2.83;;;;;;;-148.16;100.00;58328.31;5035267;28;20049;-59
2022/01/19 01:20:52;;;;;;;9.10;3.28;;;;;;;-148.16;100.00;58328.31;5030011;28;20049;-59
2022/01/19 01:23:38;;;;;;;6.68;2.67;;;;;;;-148.16;100.00;58328.31;5030498;28;20053;-59
2022/01/19 01:26:24;;;;;;;6.45;2.58;;;;;;;-148.16;100.00;58328.31;5021569;28;20053;-59
2022/01/19 01:29:10;;;;;;;3.67;2.15;;;;;;;-148.16;100.00;58328.31;5031565;28;20064;-59
2022/01/19 01:31:56;;;;;;;12.52;3.13;;;;;;;-148.16;100.00;58328.31;5034309;28;20045;-59
2022/01/19 01:34:42;;;;;;;9.65;3.28;;;;;;;-148.16;100.00;58328.31;5034212;28;20053;-59
2022/01/19 01:37:28;;;;;;;5.93;2.30;;;;;;;-148.16;100.00;58328.31;5033139;28;20049;-59
2022/01/19 01:40:14;;;;;;;6.50;2.90;;;;;;;-148.16;100.00;58328.31;5033778;28;20049;-59
2022/01/19 01:43:08;;;;;;;4.70;2.30;;;;;;;-148.16;100.00;58328.31;5032923;28;20057;-59
2022/01/19 01:46:01;;;;;;;4.60;2.35;;;;;;;-148.16;100.00;58328.31;5033735;28;20041;-59
2022/01/19 01:48:47;;;;;;;7.45;2.50;;;;;;;-148.16;100.00;58328.31;5032336;28;20479;-59
2022/01/19 01:54:40;;;;;;;10.82;3.05;;;;;;;-148.16;100.00;58328.31;5033486;28;20045;-59
2022/01/19 01:57:26;;;;;;;8.50;2.63;;;;;;;-148.16;100.00;58328.31;5032626;28;20045;-59
2022/01/19 02:00:15;;;;;;;6.00;2.42;;;;;;;-148.16;100.00;58328.31;5037404;28;20061;-58
2022/01/19 02:03:04;;;;;;;5.50;2.25;;;;;;;-148.16;100.00;58328.31;5033465;28;20053;-58
2022/01/19 02:06:12;;;;;;;4.22;2.20;;;;;;;-148.16;100.00;58328.31;5032423;28;20045;-58
2022/01/19 02:09:15;;;;;;;8.18;2.75;;;;;;;-148.16;100.00;58328.31;5032351;28;20049;-59
2022/01/19 02:21:46;;;;;;;5.10;2.50;;;;;;;-148.16;100.00;58328.31;5032207;28;20404;-58
2022/01/19 02:24:41;;;;;;;4.43;2.28;;;;;;;-148.16;100.00;58328.31;5018171;28;20049;-58
2022/01/19 02:31:46;;;;;;;8.65;2.80;;;;;;;-148.16;100.00;58328.31;5032056;28;20497;-59
2022/01/19 02:40:05;;;;;;;6.50;2.42;;;;;;;-148.16;100.00;58328.31;5032548;28;20092;-59
2022/01/19 02:52:16;;;;;;;4.47;2.30;;;;;;;-148.16;100.00;58328.31;5016105;28;20089;-58
2022/01/19 02:55:02;;;;;;;6.40;2.45;;;;;;;-148.16;100.00;58328.31;5021954;28;20042;-59
2022/01/19 02:57:49;;;;;;;4.45;2.55;;;;;;;-148.16;100.00;58328.31;5030382;28;20041;-58
2022/01/19 03:09:42;;;;;;;11.70;2.30;;;;;;;-148.16;100.00;58328.31;5019724;28;20049;-58
2022/01/19 03:12:28;;;;;;;6.60;2.50;;;;;;;-148.16;100.00;58328.31;5015971;28;20057;-59
2022/01/19 03:15:14;;;;;;;4.28;2.28;;;;;;;-148.16;100.00;58328.31;5021706;28;20053;-58
2022/01/19 03:18:01;;;;;;;7.25;2.30;;;;;;;-148.16;100.00;58328.31;5021747;28;20037;-58
2022/01/19 03:20:46;;;;;;;5.65;2.38;;;;;;;-148.16;100.00;58328.31;5029382;28;20076;-58
2022/01/19 03:23:33;;;;;;;6.95;2.30;;;;;;;-148.16;100.00;58328.31;5031521;28;20049;-58
2022/01/19 03:26:19;;;;;;;5.50;2.50;;;;;;;-148.16;100.00;58328.31;5031040;28;20061;-59
2022/01/19 03:29:27;;;;;;;3.85;2.42;;;;;;;-148.16;100.00;58328.31;5025966;28;20071;-59
2022/01/19 03:32:13;;;;;;;6.15;1.92;;;;;;;-148.16;100.00;58328.31;5030876;28;20512;-58
2022/01/19 03:35:00;;;;;;;8.50;2.47;;;;;;;-148.16;100.00;58328.31;5030580;28;20045;-58
2022/01/19 03:37:46;;;;;;;5.97;1.80;;;;;;;-148.16;100.00;58328.31;5030364;28;20049;-58
2022/01/19 03:40:32;;;;;;;4.70;2.00;;;;;;;-148.16;100.00;58328.31;5030582;28;20053;-58
2022/01/19 03:43:18;;;;;;;5.43;2.35;;;;;;;-148.16;100.00;58328.31;5030354;28;20049;-58
2022/01/19 03:46:16;;;;;;;3.90;2.22;;;;;;;-148.16;100.00;58328.31;5030739;28;20049;-58
2022/01/19 03:49:11;;;;;;;3.88;2.70;;;;;;;-148.16;100.00;58328.31;5030549;28;20054;-58
2022/01/19 03:52:02;;;;;;;8.85;2.20;;;;;;;-148.16;100.00;58328.31;5030198;28;20053;-58
2022/01/19 03:54:50;;;;;;;5.40;2.40;;;;;;;-148.16;100.00;58328.31;5043569;28;20045;-59
2022/01/19 03:57:36;;;;;;;6.35;2.28;;;;;;;-148.16;100.00;58328.31;5030419;28;20033;-59
2022/01/19 04:00:22;;;;;;;4.07;2.17;;;;;;;-148.16;100.00;58328.31;5028806;28;20130;-59
2022/01/19 04:03:11;;;;;;;5.53;2.40;;;;;;;-148.16;100.00;58328.31;5033388;28;20037;-59
2022/01/19 04:06:14;;;;;;;11.07;3.03;;;;;;;-148.16;100.00;58328.31;5030431;28;20041;-59
2022/01/19 04:09:05;;;;;;;5.32;2.20;;;;;;;-148.16;100.00;58328.31;5028917;28;20041;-59
2022/01/19 04:11:52;;;;;;;4.82;2.05;;;;;;;-148.16;100.00;58328.31;5030732;28;20049;-56
2022/01/19 04:14:37;;;;;;;6.72;1.98;;;;;;;-148.16;100.00;58328.31;5029243;28;20053;-59
2022/01/19 04:17:23;;;;;;;5.78;2.17;;;;;;;-148.16;100.00;58328.31;5030537;28;20057;-59
2022/01/19 04:20:10;;;;;;;6.18;2.33;;;;;;;-148.16;100.00;58328.31;5026793;28;20038;-59
2022/01/19 04:22:57;;;;;;;5.70;2.22;;;;;;;-148.16;100.00;58328.31;5030273;28;20046;-59
2022/01/19 04:25:43;;;;;;;11.32;3.03;;;;;;;-148.16;100.00;58328.31;5029967;28;20064;-59
2022/01/19 04:28:29;;;;;;;6.50;2.70;;;;;;;-148.16;100.00;58328.31;5030627;28;20057;-59
2022/01/19 04:31:15;;;;;;;6.38;2.40;;;;;;;-148.16;100.00;58328.31;5030800;28;20045;-58
2022/01/19 04:34:04;;;;;;;8.10;2.13;;;;;;;-148.16;100.00;58328.31;5015978;28;20354;-58
2022/01/19 04:46:25;;;;;;;9.02;2.85;;;;;;;-148.16;100.00;58328.31;5035571;28;20053;-59
2022/01/19 05:01:45;;;;;;;8.25;2.60;;;;;;;-148.16;100.00;58328.31;5029400;28;20050;-58
2022/01/19 05:08:14;;;;;;;7.38;2.28;;;;;;;-148.16;100.00;58328.31;5040532;28;20481;-57
2022/01/19 05:14:04;;;;;;;7.30;2.78;;;;;;;-148.16;100.00;58328.31;5052836;28;20093;-58
2022/01/19 05:16:50;;;;;;;8.70;2.67;;;;;;;-148.16;100.00;58328.31;5044841;28;20049;-58
2022/01/19 05:19:36;;;;;;;7.03;2.35;;;;;;;-148.16;100.00;58328.31;5053441;28;20049;-57
2022/01/19 05:22:24;;;;;;;5.78;2.85;;;;;;;-148.16;100.00;58328.31;5059200;28;20049;-59
2022/01/19 05:25:17;;;;;;;9.77;2.38;;;;;;;-148.16;100.00;58328.31;5052760;28;20476;-60
2022/01/19 05:28:11;;;;;;;6.38;2.05;;;;;;;-148.16;100.00;58328.31;5047004;28;20405;-58
2022/01/19 05:30:56;;;;;;;3.85;1.60;;;;;;;-148.16;100.00;58328.31;5035690;28;20038;-56
2022/01/19 05:33:42;;;;;;;4.88;3.13;;;;;;;-148.16;100.00;58328.31;5032293;28;20053;-55
2022/01/19 05:36:28;;;;;;;6.45;2.30;;;;;;;-148.16;100.00;58328.31;5033218;28;20412;-59
2022/01/19 05:39:44;;;;;;;7.80;2.20;;;;;;;-148.16;100.00;58328.31;5031662;28;20041;-58
2022/01/19 05:42:45;;;;;;;10.23;2.42;;;;;;;-148.16;100.00;58328.31;5038737;28;20045;-59
2022/01/19 05:45:32;;;;;;;6.63;2.30;;;;;;;-148.16;100.00;58328.31;5040283;28;20152;-58
2022/01/19 05:48:26;;;;;;;4.68;2.58;;;;;;;-148.16;100.00;58328.31;5048722;28;20101;-60
2022/01/19 05:51:14;;;;;;;3.22;1.60;;;;;;;-148.16;100.00;58328.31;5011798;28;20050;-58
2022/01/19 05:54:00;;;;;;;5.35;2.15;;;;;;;-148.16;100.00;58328.31;5012745;28;20042;-58
2022/01/19 05:56:46;;;;;;;6.18;2.10;;;;;;;-148.16;100.00;58328.31;5012819;28;20045;-58
2022/01/19 05:59:43;;;;;;;6.18;1.98;;;;;;;-148.16;100.00;58328.31;5012434;28;20045;-58
2022/01/19 06:02:32;;;;;;;7.28;2.38;;;;;;;-148.16;100.00;58328.31;5012157;28;20045;-59
2022/01/19 06:05:19;;;;;;;6.10;2.50;;;;;;;-148.16;100.00;58328.31;5012448;28;20050;-61
2022/01/19 06:08:45;;;;;;;7.47;2.38;;;;;;;-148.16;100.00;58328.31;5014753;28;20037;-60
2022/01/19 06:11:33;;;;;;;6.93;2.70;;;;;;;-148.16;100.00;58328.31;5024185;28;20049;-59
2022/01/19 06:14:21;;;;;;;5.65;2.63;;;;;;;-148.16;100.00;58328.31;5031661;28;20045;-59
2022/01/19 06:17:10;;;;;;;6.63;2.60;;;;;;;-148.16;100.00;58328.31;5032552;28;20045;-60
2022/01/19 06:19:57;;;;;;;6.63;2.65;;;;;;;-148.16;100.00;58328.31;5031998;28;20438;-60
2022/01/19 06:22:43;;;;;;;5.40;2.25;;;;;;;-148.16;100.00;58328.31;5037699;28;20049;-60
2022/01/19 06:25:29;;;;;;;8.32;2.35;;;;;;;-148.16;100.00;58328.31;5031963;28;20489;-61
2022/01/19 06:28:15;;;;;;;4.82;2.25;;;;;;;-148.16;100.00;58328.31;5035709;28;20439;-60
2022/01/19 06:31:01;;;;;;;4.68;2.22;;;;;;;-148.16;100.00;58328.31;5031368;28;20408;-60
2022/01/19 06:33:48;;;;;;;5.25;2.53;;;;;;;-148.16;100.00;58328.31;5031507;28;20037;-60
2022/01/19 06:36:36;;;;;;;4.60;2.08;;;;;;;-148.16;100.00;58328.31;5031152;28;20049;-58
2022/01/19 06:39:27;;;;;;;4.80;2.22;;;;;;;-148.16;100.00;58328.31;5032112;28;20045;-58
2022/01/19 06:42:23;;;;;;;6.18;2.42;;;;;;;-148.16;100.00;58328.31;5031510;28;20049;-58
2022/01/19 06:45:10;;;;;;;2.40;1.65;;;;;;;-148.16;100.00;58328.31;5032609;28;20046;-58
2022/01/19 06:47:56;;;;;;;5.55;1.98;;;;;;;-148.16;100.00;58328.31;5030901;28;20046;-59
2022/01/19 06:50:42;;;;;;;5.45;1.95;;;;;;;-148.16;100.00;58328.31;5030225;28;20401;-59
2022/01/19 06:53:28;;;;;;;5.47;1.90;;;;;;;-148.16;100.00;58328.31;5031570;28;20045;-58
2022/01/19 06:56:24;;;;;;;6.93;2.63;;;;;;;-148.16;100.00;58328.31;5031481;28;20042;-60
2022/01/19 06:59:18;;;;;;;9.05;3.13;;;;;;;-148.16;100.00;58328.31;5018648;28;20477;-62
2022/01/19 07:02:23;;;;;;;9.95;3.88;;;;;;;-148.16;100.00;58328.31;5032293;28;20045;-60
2022/01/19 07:05:16;;;;;;;6.47;3.20;;;;;;;-148.16;100.00;58328.31;5031172;28;20046;-58
2022/01/19 07:08:10;;;;;;;8.68;2.80;;;;;;;-148.16;100.00;58328.31;5031130;28;20033;-59
2022/01/19 07:10:56;;;;;;;6.97;2.60;;;;;;;-148.16;100.00;58328.31;5032208;28;20129;-59
2022/01/19 07:13:42;;;;;;;5.78;3.08;;;;;;;-148.16;100.00;58328.31;5036932;28;20412;-59
2022/01/19 07:16:27;;;;;;;10.50;2.85;;;;;;;-148.16;100.00;58328.31;5036544;28;20053;-60
2022/01/19 07:19:14;;;;;;;8.50;3.22;;;;;;;-148.16;100.00;58328.31;5031059;28;20041;-59
2022/01/19 07:22:01;;;;;;;6.43;2.92;;;;;;;-148.16;100.00;58328.31;5059033;28;20481;-59
2022/01/19 07:24:47;;;;;;;4.65;2.70;;;;;;;-148.16;100.00;58328.31;5030921;28;20488;-59
2022/01/19 07:27:33;;;;;;;6.50;2.85;;;;;;;-148.16;100.00;58328.31;5030529;28;20041;-59
2022/01/19 07:30:22;;;;;;;7.85;3.13;;;;;;;-148.16;100.00;58328.31;5030874;28;20048;-59
2022/01/19 07:33:09;;;;;;;10.52;3.20;;;;;;;-148.16;100.00;58328.31;5030767;28;20042;-60
2022/01/19 07:35:55;;;;;;;6.68;2.67;;;;;;;-148.16;100.00;58328.31;5032017;28;20045;-59
2022/01/19 07:38:41;;;;;;;9.13;2.92;;;;;;;-148.16;100.00;58328.31;5029497;28;20413;-58
2022/01/19 07:41:26;;;;;;;7.80;3.20;;;;;;;-148.16;100.00;58328.31;5031658;28;20057;-57
2022/01/19 07:44:14;;;;;;;5.55;3.10;;;;;;;-148.16;100.00;58328.31;5031163;28;20405;-57
2022/01/19 07:47:19;;;;;;;7.10;3.60;;;;;;;-148.16;100.00;58328.31;5031214;28;20045;-58
2022/01/19 07:50:34;;;;;;;11.27;4.28;;;;;;;-148.16;100.00;58328.31;5028958;28;20045;-58
2022/01/19 07:53:52;;;;;;;6.20;3.15;;;;;;;-148.16;100.00;58328.31;5030231;28;20046;-56
2022/01/19 07:56:50;;;;;;;7.78;3.47;;;;;;;-148.16;100.00;58328.31;5029997;28;20052;-57
2022/01/19 07:59:54;;;;;;;13.02;4.80;;;;;;;-148.16;100.00;58328.31;5031046;28;20049;-56
2022/01/19 08:02:42;;;;;;;17.13;7.68;;;;;;;-148.16;100.00;58328.31;5029934;28;20049;-64
2022/01/19 08:06:02;;;;;;;8.32;3.30;;;;;;;-148.16;100.00;58328.31;5013897;28;20049;-61
2022/01/19 08:08:51;;;;;;;5.25;2.63;;;;;;;-148.16;100.00;58328.31;5029728;28;20045;-67
2022/01/19 08:11:38;;;;;;;6.00;3.20;;;;;;;-148.16;100.00;58328.31;5030391;28;20420;-63
2022/01/19 08:14:53;;;;;;;6.90;3.13;;;;;;;-148.16;100.00;58328.31;5028297;28;20045;-66
2022/01/19 08:17:48;;;;;;;9.52;2.92;;;;;;;-148.16;100.00;58328.31;5035656;28;20045;-63
2022/01/19 08:20:34;;;;;;;8.02;3.13;;;;;;;-148.16;100.00;58328.31;5028329;28;20041;-61
2022/01/19 08:23:20;;;;;;;9.95;3.15;;;;;;;-148.16;100.00;58328.31;5014488;28;20413;-65
2022/01/19 08:26:13;;;;;;;9.05;2.90;;;;;;;-148.16;100.00;58328.31;5029171;28;20049;-62
2022/01/19 08:29:00;;;;;;;7.22;3.22;;;;;;;-148.16;100.00;58328.31;5029521;28;20041;-55
2022/01/19 08:31:46;;;;;;;5.68;2.97;;;;;;;-148.16;100.00;58328.31;5029280;28;20469;-54
2022/01/19 08:34:51;;;;;;;8.35;4.07;;;;;;;-148.16;100.00;58328.31;5030024;28;20041;-55
2022/01/19 08:37:39;;;;;;;19.13;7.35;;;;;;;-148.16;100.00;58328.31;5029825;28;20049;-57
2022/01/19 08:40:28;;;;;;;9.98;4.80;;;;;;;-148.16;100.00;58328.31;5029401;28;20046;-56
2022/01/19 08:43:26;;;;;;;8.05;4.10;;;;;;;-148.16;100.00;58328.31;5035385;28;20038;-56
2022/01/19 08:46:12;;;;;;;8.45;4.13;;;;;;;-148.16;100.00;58328.31;5029713;28;20049;-57
2022/01/19 08:49:21;;;;;;;9.65;4.80;;;;;;;-148.16;100.00;58328.31;5023243;28;20049;-56
2022/01/19 08:52:27;;;;;;;10.95;4.20;;;;;;;-148.16;100.00;58328.31;5029529;28;20050;-56
2022/01/19 08:55:27;;;;;;;11.10;4.43;;;;;;;-148.16;100.00;58328.31;5029444;28;20049;-54
2022/01/19 08:58:13;;;;;;;8.35;3.90;;;;;;;-148.16;100.00;58328.31;5030754;28;20400;-54
2022/01/19 09:00:59;;;;;;;8.98;4.53;;;;;;;-148.16;100.00;58328.31;5030492;28;20413;-52
2022/01/19 09:03:45;;;;;;;7.07;3.85;;;;;;;-148.16;100.00;58328.31;5029181;28;21348;-55
2022/01/19 09:06:31;;;;;;;7.55;3.55;;;;;;;-148.16;100.00;58328.31;5030227;28;20049;-57
2022/01/19 09:09:17;;;;;;;8.38;4.05;;;;;;;-148.16;100.00;58328.31;5021613;28;20045;-56
2022/01/19 09:12:03;;;;;;;8.68;4.82;;;;;;;-148.16;100.00;58328.31;5030635;28;20045;-56
2022/01/19 09:14:50;;;;;;;7.90;3.70;;;;;;;-148.16;100.00;58328.31;5029687;28;20488;-55
2022/01/19 09:17:37;;;;;;;10.43;4.00;;;;;;;-148.16;100.00;58328.31;5019430;28;20041;-59
2022/01/19 09:20:22;;;;;;;7.88;3.58;;;;;;;-148.16;100.00;58328.31;5030747;28;20068;-53
2022/01/19 09:23:08;;;;;;;7.40;3.40;;;;;;;-148.16;100.00;58328.31;5030568;28;20488;-51
2022/01/19 09:25:54;;;;;;;10.20;4.10;;;;;;;-148.16;100.00;58328.31;5030631;28;20058;-50
2022/01/19 09:28:40;;;;;;;9.73;4.88;;;;;;;-148.16;100.00;58328.31;5030039;28;20046;-57
2022/01/19 09:31:26;;;;;;;8.68;4.20;;;;;;;-148.16;100.00;58328.31;5030377;28;20047;-56
2022/01/19 09:34:15;;;;;;;8.32;4.40;;;;;;;-148.16;100.00;58328.31;5030724;28;20045;-55
2022/01/19 09:37:01;;;;;;;13.07;4.32;;;;;;;-148.16;100.00;58328.31;5034782;28;20042;-53
2022/01/19 09:39:47;;;;;;;9.48;3.38;;;;;;;-148.16;100.00;58328.31;5027696;28;20045;-54
2022/01/19 09:42:34;;;;;;;5.97;3.38;;;;;;;-148.16;100.00;58328.31;5036101;28;20479;-52
2022/01/19 09:45:20;;;;;;;11.07;4.15;;;;;;;-148.16;100.00;58328.31;5029163;28;20045;-55
2022/01/19 09:48:07;;;;;;;10.07;4.28;;;;;;;-148.16;100.00;58328.31;5030128;28;20041;-55
2022/01/19 09:50:54;;;;;;;8.88;5.13;;;;;;;-148.16;100.00;58328.31;5032903;28;20045;-51
2022/01/19 09:53:41;;;;;;;11.93;5.05;;;;;;;-148.16;100.00;58328.31;5033468;28;20046;-55
2022/01/19 09:56:26;;;;;;;8.85;5.13;;;;;;;-148.16;100.00;58328.31;5033097;28;20045;-53
2022/01/19 09:59:14;;;;;;;10.05;5.18;;;;;;;-148.16;100.00;58328.31;5033879;28;20397;-52
2022/01/19 10:02:09;;;;;;;13.52;6.00;;;;;;;-148.16;100.00;58328.31;5032263;28;20501;-53
2022/01/19 10:05:05;;;;;;;14.15;6.30;;;;;;;-148.16;100.00;58328.31;5033525;28;20046;-54
2022/01/19 10:08:00;;;;;;;12.35;5.53;;;;;;;-148.16;100.00;58328.31;5032220;28;20046;-52
2022/01/19 10:10:45;;;;;;;11.95;5.95;;;;;;;-148.16;100.00;58328.31;5033064;28;20045;-55
2022/01/19 10:17:00;;;;;;;13.13;5.30;;;;;;;-148.16;100.00;58328.31;5033081;28;20045;-52
2022/01/19 10:19:49;;;;;;;9.82;5.50;;;;;;;-148.16;100.00;58328.31;5033336;28;20057;-53
2022/01/19 10:22:36;;;;;;;16.30;5.70;;;;;;;-148.16;100.00;58328.31;5033018;28;20057;-53
2022/01/19 10:25:21;;;;;;;14.02;5.55;;;;;;;-148.16;100.00;58328.31;5032985;28;20045;-56
2022/01/19 10:28:08;;;;;;;11.05;4.65;;;;;;;-148.16;100.00;58328.31;5031899;28;20045;-49
2022/01/19 10:30:55;;;;;;;10.43;4.70;;;;;;;-148.16;100.00;58328.31;5032630;28;20050;-54
2022/01/19 10:33:40;;;;;;;10.68;4.70;;;;;;;-148.16;100.00;58328.31;5032581;28;20038;-51
2022/01/19 10:36:41;;;;;;;15.18;5.68;;;;;;;-148.16;100.00;58328.31;5033114;28;20045;-52
2022/01/19 10:39:42;;;;;;;10.98;4.60;;;;;;;-148.16;100.00;58328.31;5032314;28;20408;-51
2022/01/19 10:42:31;;;;;;;13.98;5.30;;;;;;;-148.16;100.00;58328.31;5032880;28;20046;-53
2022/01/19 10:45:17;;;;;;;18.40;7.97;;;;;;;-148.16;100.00;58328.31;5037487;28;20053;-55
2022/01/19 10:48:04;;;;;;;10.75;5.35;;;;;;;-148.16;100.00;58328.31;5037506;28;20485;-52
2022/01/19 10:50:50;;;;;;;11.77;5.22;;;;;;;-148.16;100.00;58328.31;5032727;28;20050;-54
2022/01/19 10:53:38;;;;;;;11.00;6.10;;;;;;;-148.16;100.00;58328.31;5031575;28;20401;-53
2022/01/19 10:56:29;;;;;;;14.07;5.82;;;;;;;-148.16;100.00;58328.31;5031580;28;20401;-55
2022/01/19 10:59:18;;;;;;;11.82;5.68;;;;;;;-148.16;100.00;58328.31;5032777;28;20045;-52
2022/01/19 11:02:04;;;;;;;10.52;5.35;;;;;;;-148.16;100.00;58328.31;5031487;28;20041;-54
2022/01/19 11:04:50;;;;;;;11.23;5.18;;;;;;;-148.16;100.00;58328.31;5032417;28;20053;-49
2022/01/19 11:07:36;;;;;;;9.95;5.07;;;;;;;-148.16;100.00;58328.31;5032360;28;20059;-50
2022/01/19 11:10:22;;;;;;;10.23;5.43;;;;;;;-148.16;100.00;58328.31;5032215;28;20049;-49
2022/01/19 11:13:13;;;;;;;11.23;5.07;;;;;;;-148.16;100.00;58328.31;5032548;28;20037;-54
2022/01/19 11:16:02;;;;;;;10.98;5.05;;;;;;;-148.16;100.00;58328.31;5032387;28;20033;-51
2022/01/19 11:18:48;;;;;;;9.70;4.55;;;;;;;-148.16;100.00;58328.31;5032163;28;20412;-53
2022/01/19 11:21:44;;;;;;;9.35;4.32;;;;;;;-148.16;100.00;58328.31;5032088;28;20049;-52
2022/01/19 11:24:41;;;;;;;10.40;4.43;;;;;;;-148.16;100.00;58328.31;5032062;28;20049;-49
2022/01/19 11:27:35;;;;;;;6.55;3.28;;;;;;;-148.16;100.00;58328.31;5032357;28;20057;-57
2022/01/19 11:30:28;;;;;;;8.50;4.65;;;;;;;-148.16;100.00;58328.31;5022862;28;20045;-52
2022/01/19 11:33:26;;;;;;;9.48;3.83;;;;;;;-148.16;100.00;58328.31;5031415;28;20049;-50
2022/01/19 11:36:19;;;;;;;9.18;4.35;;;;;;;-148.16;100.00;58328.31;5032529;28;20058;-52
2022/01/19 11:39:34;;;;;;;9.32;3.83;;;;;;;-148.16;100.00;58328.31;5031577;28;20049;-52
2022/01/19 11:42:20;;;;;;;8.52;4.07;;;;;;;-148.16;100.00;58328.31;5030341;28;20053;-54
2022/01/19 11:45:37;;;;;;;6.40;3.35;;;;;;;-148.16;100.00;58328.31;5032140;28;20041;-52
2022/01/19 11:48:26;;;;;;;9.80;4.55;;;;;;;-148.16;100.00;58328.31;5032016;28;20049;-48
2022/01/19 11:51:35;;;;;;;9.73;3.85;;;;;;;-148.16;100.00;58328.31;5031132;28;20041;-47
2022/01/19 11:54:33;;;;;;;11.77;4.07;;;;;;;-148.16;100.00;58328.31;5031682;28;20045;-48
2022/01/19 11:57:28;;;;;;;10.80;4.18;;;;;;;-148.16;100.00;58328.31;5030558;28;20053;-52
2022/01/19 12:00:14;;;;;;;11.63;4.32;;;;;;;-148.16;100.00;58328.31;5031855;28;20474;-49
2022/01/19 12:03:16;;;;;;;16.77;4.57;;;;;;;-148.16;100.00;58328.31;5031843;28;20049;-57
2022/01/19 12:06:03;;;;;;;10.32;4.40;;;;;;;-148.16;100.00;58328.31;5024375;28;20045;-58
2022/01/19 12:08:55;;;;;;;7.97;3.60;;;;;;;-148.16;100.00;58328.31;5032866;28;20053;-58
2022/01/19 12:11:54;;;;;;;12.93;4.22;;;;;;;-148.16;100.00;58328.31;5030858;28;20038;-58
2022/01/19 12:14:39;;;;;;;10.90;4.20;;;;;;;-148.16;100.00;58328.31;5030438;28;20041;-57
2022/01/19 12:17:52;;;;;;;7.35;3.58;;;;;;;-148.16;100.00;58328.31;5036224;28;20045;-61
2022/01/19 12:20:53;;;;;;;10.68;4.05;;;;;;;-148.16;100.00;58328.31;5030108;28;20053;-59
2022/01/19 12:23:41;;;;;;;9.63;4.30;;;;;;;-148.16;100.00;58328.31;5030358;28;20049;-60
2022/01/19 12:26:47;;;;;;;6.53;3.63;;;;;;;-148.16;100.00;58328.31;5031261;28;20057;-60
2022/01/19 12:29:33;;;;;;;7.95;3.50;;;;;;;-148.16;100.00;58328.31;5031387;28;20054;-59
2022/01/19 12:32:20;;;;;;;11.77;4.20;;;;;;;-148.16;100.00;58328.31;5031386;28;20041;-61
2022/01/19 12:35:11;;;;;;;7.13;3.72;;;;;;;-148.16;100.00;58328.31;5030964;28;20049;-59
2022/01/19 12:37:58;;;;;;;12.15;5.25;;;;;;;-148.16;100.00;58328.31;5031341;28;20045;-56
2022/01/19 12:40:46;;;;;;;10.02;3.65;;;;;;;-148.16;100.00;58328.31;5031154;28;20053;-60
2022/01/19 12:43:34;;;;;;;10.05;3.67;;;;;;;-148.16;100.00;58328.31;5036095;28;20477;-59
2022/01/19 12:46:37;;;;;;;6.65;3.53;;;;;;;-148.16;100.00;58328.31;5021589;28;20053;-59
2022/01/19 12:49:26;;;;;;;;;;;;;;;-148.16;100.00;58328.31;5016598;28;20053;-56
2022/01/19 12:52:15;;;;;;;11.85;3.42;;;;;;;-148.16;100.00;58328.31;5040878;28;20348;-58
2022/01/19 12:55:13;;;;;;;10.02;4.10;;;;;;;-148.16;100.00;58328.31;5029307;28;20049;-59
2022/01/19 12:57:59;;;;;;;8.70;3.33;;;;;;;-148.16;100.00;58328.31;5035553;28;20409;-60
2022/01/19 13:00:49;;;;;;;10.45;3.60;;;;;;;-148.16;100.00;58328.31;5029519;28;20129;-59
2022/01/19 13:03:40;;;;;;;10.77;4.32;;;;;;;-148.16;100.00;58328.31;5035400;28;20038;-59
2022/01/19 13:06:28;;;;;;;6.00;1.95;;;;;;;-148.16;100.00;58328.31;5031164;28;20042;-59
2022/01/19 13:09:24;;;;;;;6.63;3.22;;;;;;;-148.16;100.00;58328.31;5031103;28;20041;-59
2022/01/19 13:12:12;;;;;;;10.02;3.20;;;;;;;-148.16;100.00;58328.31;5030217;28;20045;-60
2022/01/19 13:14:58;;;;;;;6.47;3.97;;;;;;;-148.16;100.00;58328.31;5029385;28;20485;-59
2022/01/19 13:17:46;;;;;;;9.50;3.47;;;;;;;-148.16;100.00;58328.31;5006178;28;20057;-59
2022/01/19 13:20:32;;;;;;;7.75;4.00;;;;;;;-148.16;100.00;58328.31;5027799;28;20049;-60
2022/01/19 13:23:19;;;;;;;8.80;3.90;;;;;;;-148.16;100.00;58328.31;5029164;28;20037;-59
2022/01/19 13:26:10;;;;;;;8.52;3.80;;;;;;;-148.16;100.00;58328.31;5032694;28;20480;-59
2022/01/19 13:28:55;;;;;;;8.05;3.85;;;;;;;-148.16;100.00;58328.31;5033300;28;20049;-59
2022/01/19 13:32:02;;;;;;;9.23;3.88;;;;;;;-148.16;100.00;58328.31;5033565;28;20037;-59
2022/01/19 13:34:57;;;;;;;8.90;3.10;;;;;;;-148.16;100.00;58328.31;5034453;28;20045;-59
2022/01/19 13:37:46;;;;;;;5.45;3.10;;;;;;;-148.16;100.00;58328.31;5034594;28;20049;-60
2022/01/19 13:40:33;;;;;;;10.25;4.50;;;;;;;-148.16;100.00;58328.31;5034191;28;20050;-59
2022/01/19 13:43:20;;;;;;;7.07;3.45;;;;;;;-148.16;100.00;58328.31;5034229;28;20054;-57
2022/01/19 13:46:14;;;;;;;9.85;3.88;;;;;;;-148.16;100.00;58328.31;5025687;28;20049;-58
2022/01/19 13:49:04;;;;;;;6.75;3.00;;;;;;;-148.16;100.00;58328.31;5033311;28;20049;-58
2022/01/19 13:51:50;;;;;;;7.22;3.42;;;;;;;-148.16;100.00;58328.31;5033146;28;20041;-58
2022/01/19 13:54:40;;;;;;;8.48;3.85;;;;;;;-148.16;100.00;58328.31;5033033;28;20050;-58
2022/01/19 13:57:28;;;;;;;9.82;3.75;;;;;;;-148.16;100.00;58328.31;5033152;28;20045;-58
2022/01/19 14:00:19;;;;;;;7.10;3.53;;;;;;;-148.16;100.00;58328.31;5032979;28;20442;-59
2022/01/19 14:03:06;;;;;;;7.00;3.88;;;;;;;-148.16;100.00;58328.31;5033080;28;20042;-58
2022/01/19 14:05:54;;;;;;;10.38;3.70;;;;;;;-148.16;100.00;58328.31;5034004;28;20053;-58
2022/01/19 14:08:40;;;;;;;8.23;3.90;;;;;;;-148.16;100.00;58328.31;5033681;28;20485;-57
2022/01/19 14:11:26;;;;;;;7.85;3.80;;;;;;;-148.16;100.00;58328.31;5038774;28;20050;-57
2022/01/19 14:14:35;;;;;;;10.95;3.70;;;;;;;-148.16;100.00;58328.31;5038844;28;20508;-58